sensor_id;sensor_type;location;lat;lon;timestamp;P1;durP1;ratioP1;P2;durP2;ratioP2
66384;SDS011;53426;55.872;37.462;2023-04-26T00:02:10;5.95;;;4.65;;
66384;SDS011;53426;55.872;37.462;2023-04-26T00:07:29;5.72;;;4.82;;
66384;SDS011;53426;55.872;37.462;2023-04-26T00:09:58;10.00;;;5.50;;
66384;SDS011;53426;55.872;37.462;2023-04-26T00:12:24;5.85;;;5.30;;
66384;SDS011;53426;55.872;37.462;2023-04-26T00:14:50;12.02;;;6.05;;
66384;SDS011;53426;55.872;37.462;2023-04-26T00:17:32;8.52;;;5.85;;
66384;SDS011;53426;55.872;37.462;2023-04-26T00:24:10;8.98;;;5.20;;
66384;SDS011;53426;55.872;37.462;2023-04-26T00:26:36;7.97;;;5.45;;
66384;SDS011;53426;55.872;37.462;2023-04-26T00:29:05;6.35;;;4.93;;
66384;SDS011;53426;55.872;37.462;2023-04-26T00:31:51;7.10;;;5.13;;
66384;SDS011;53426;55.872;37.462;2023-04-26T00:34:18;6.70;;;5.25;;
66384;SDS011;53426;55.872;37.462;2023-04-26T00:36:45;8.40;;;5.43;;
66384;SDS011;53426;55.872;37.462;2023-04-26T00:39:12;5.63;;;5.03;;
66384;SDS011;53426;55.872;37.462;2023-04-26T00:41:38;7.35;;;5.78;;
66384;SDS011;53426;55.872;37.462;2023-04-26T00:44:04;6.50;;;4.90;;
66384;SDS011;53426;55.872;37.462;2023-04-26T00:46:32;6.18;;;5.57;;
66384;SDS011;53426;55.872;37.462;2023-04-26T00:48:58;12.15;;;6.32;;
66384;SDS011;53426;55.872;37.462;2023-04-26T00:51:23;7.60;;;5.63;;
66384;SDS011;53426;55.872;37.462;2023-04-26T00:53:49;8.95;;;6.10;;
66384;SDS011;53426;55.872;37.462;2023-04-26T00:56:16;12.27;;;6.53;;
66384;SDS011;53426;55.872;37.462;2023-04-26T00:58:44;8.00;;;7.07;;
66384;SDS011;53426;55.872;37.462;2023-04-26T01:05:23;7.47;;;6.78;;
66384;SDS011;53426;55.872;37.462;2023-04-26T01:07:49;8.02;;;6.47;;
66384;SDS011;53426;55.872;37.462;2023-04-26T01:10:15;9.40;;;7.65;;
66384;SDS011;53426;55.872;37.462;2023-04-26T01:12:42;8.95;;;7.00;;
66384;SDS011;53426;55.872;37.462;2023-04-26T01:15:08;8.32;;;7.10;;
66384;SDS011;53426;55.872;37.462;2023-04-26T01:17:35;9.90;;;6.25;;
66384;SDS011;53426;55.872;37.462;2023-04-26T01:20:06;12.40;;;7.05;;
66384;SDS011;53426;55.872;37.462;2023-04-26T01:22:34;7.47;;;6.88;;
66384;SDS011;53426;55.872;37.462;2023-04-26T01:25:02;11.48;;;6.68;;
66384;SDS011;53426;55.872;37.462;2023-04-26T01:27:32;7.70;;;7.00;;
66384;SDS011;53426;55.872;37.462;2023-04-26T01:39:00;12.90;;;6.55;;
66384;SDS011;53426;55.872;37.462;2023-04-26T01:41:26;8.32;;;7.38;;
66384;SDS011;53426;55.872;37.462;2023-04-26T01:43:52;10.55;;;6.60;;
66384;SDS011;53426;55.872;37.462;2023-04-26T01:46:18;7.63;;;6.93;;
66384;SDS011;53426;55.872;37.462;2023-04-26T01:53:00;7.78;;;6.38;;
66384;SDS011;53426;55.872;37.462;2023-04-26T01:58:21;6.90;;;6.22;;
66384;SDS011;53426;55.872;37.462;2023-04-26T02:00:48;14.95;;;6.38;;
66384;SDS011;53426;55.872;37.462;2023-04-26T02:03:14;10.05;;;6.90;;
66384;SDS011;53426;55.872;37.462;2023-04-26T02:05:41;8.32;;;6.63;;
66384;SDS011;53426;55.872;37.462;2023-04-26T02:08:47;12.85;;;6.97;;
66384;SDS011;53426;55.872;37.462;2023-04-26T02:11:14;8.23;;;7.13;;
66384;SDS011;53426;55.872;37.462;2023-04-26T02:13:47;9.40;;;7.63;;
66384;SDS011;53426;55.872;37.462;2023-04-26T02:16:20;11.35;;;8.45;;
66384;SDS011;53426;55.872;37.462;2023-04-26T02:18:46;10.27;;;9.27;;
66384;SDS011;53426;55.872;37.462;2023-04-26T02:21:15;9.73;;;8.60;;
66384;SDS011;53426;55.872;37.462;2023-04-26T02:23:46;10.55;;;8.95;;
66384;SDS011;53426;55.872;37.462;2023-04-26T02:26:13;9.70;;;8.05;;
66384;SDS011;53426;55.872;37.462;2023-04-26T02:36:06;6.53;;;5.93;;
66384;SDS011;53426;55.872;37.462;2023-04-26T02:38:34;6.75;;;6.00;;
66384;SDS011;53426;55.872;37.462;2023-04-26T02:41:03;6.20;;;5.55;;
66384;SDS011;53426;55.872;37.462;2023-04-26T02:43:31;7.07;;;5.53;;
66384;SDS011;53426;55.872;37.462;2023-04-26T02:45:57;7.00;;;6.15;;
66384;SDS011;53426;55.872;37.462;2023-04-26T02:52:22;6.55;;;5.28;;
66384;SDS011;53426;55.872;37.462;2023-04-26T02:58:17;7.90;;;5.25;;
66384;SDS011;53426;55.872;37.462;2023-04-26T03:16:53;7.13;;;6.10;;
66384;SDS011;53426;55.872;37.462;2023-04-26T03:20:50;10.00;;;5.90;;
66384;SDS011;53426;55.872;37.462;2023-04-26T03:27:16;5.50;;;5.00;;
66384;SDS011;53426;55.872;37.462;2023-04-26T03:29:42;5.45;;;4.95;;
66384;SDS011;53426;55.872;37.462;2023-04-26T03:32:08;7.40;;;4.65;;
66384;SDS011;53426;55.872;37.462;2023-04-26T03:34:34;5.07;;;4.63;;
66384;SDS011;53426;55.872;37.462;2023-04-26T03:37:00;5.95;;;4.13;;
66384;SDS011;53426;55.872;37.462;2023-04-26T03:39:28;5.13;;;4.43;;
66384;SDS011;53426;55.872;37.462;2023-04-26T03:41:55;5.82;;;4.93;;
66384;SDS011;53426;55.872;37.462;2023-04-26T03:47:18;5.38;;;4.32;;
66384;SDS011;53426;55.872;37.462;2023-04-26T03:49:44;4.28;;;3.97;;
66384;SDS011;53426;55.872;37.462;2023-04-26T03:52:10;5.57;;;4.22;;
66384;SDS011;53426;55.872;37.462;2023-04-26T03:54:36;4.53;;;4.15;;
66384;SDS011;53426;55.872;37.462;2023-04-26T03:57:02;7.68;;;4.07;;
66384;SDS011;53426;55.872;37.462;2023-04-26T03:59:28;4.63;;;3.80;;
66384;SDS011;53426;55.872;37.462;2023-04-26T04:01:58;3.95;;;3.55;;
66384;SDS011;53426;55.872;37.462;2023-04-26T04:05:21;5.60;;;4.05;;
66384;SDS011;53426;55.872;37.462;2023-04-26T04:07:47;5.07;;;3.88;;
66384;SDS011;53426;55.872;37.462;2023-04-26T04:10:13;4.65;;;4.00;;
66384;SDS011;53426;55.872;37.462;2023-04-26T04:12:42;3.70;;;3.40;;
66384;SDS011;53426;55.872;37.462;2023-04-26T04:15:08;5.38;;;3.83;;
66384;SDS011;53426;55.872;37.462;2023-04-26T04:17:37;5.40;;;4.00;;
66384;SDS011;53426;55.872;37.462;2023-04-26T04:20:03;3.75;;;3.45;;
66384;SDS011;53426;55.872;37.462;2023-04-26T04:22:32;5.05;;;3.90;;
66384;SDS011;53426;55.872;37.462;2023-04-26T04:25:00;8.05;;;4.57;;
66384;SDS011;53426;55.872;37.462;2023-04-26T04:27:29;5.63;;;4.00;;
66384;SDS011;53426;55.872;37.462;2023-04-26T04:29:55;4.88;;;3.78;;
66384;SDS011;53426;55.872;37.462;2023-04-26T04:32:22;4.80;;;4.07;;
66384;SDS011;53426;55.872;37.462;2023-04-26T04:34:50;4.65;;;4.20;;
66384;SDS011;53426;55.872;37.462;2023-04-26T04:37:18;5.60;;;3.88;;
66384;SDS011;53426;55.872;37.462;2023-04-26T04:39:46;3.78;;;3.30;;
66384;SDS011;53426;55.872;37.462;2023-04-26T04:42:12;4.72;;;3.47;;
66384;SDS011;53426;55.872;37.462;2023-04-26T04:44:38;4.40;;;3.90;;
66384;SDS011;53426;55.872;37.462;2023-04-26T04:47:06;5.00;;;3.72;;
66384;SDS011;53426;55.872;37.462;2023-04-26T04:49:32;5.07;;;3.15;;
66384;SDS011;53426;55.872;37.462;2023-04-26T04:51:58;3.50;;;3.25;;
66384;SDS011;53426;55.872;37.462;2023-04-26T04:54:25;4.00;;;3.45;;
66384;SDS011;53426;55.872;37.462;2023-04-26T04:57:07;3.70;;;3.40;;
66384;SDS011;53426;55.872;37.462;2023-04-26T04:59:34;5.05;;;3.17;;
66384;SDS011;53426;55.872;37.462;2023-04-26T05:04:53;3.58;;;3.00;;
66384;SDS011;53426;55.872;37.462;2023-04-26T05:07:20;3.42;;;3.10;;
66384;SDS011;53426;55.872;37.462;2023-04-26T05:17:15;5.07;;;3.40;;
66384;SDS011;53426;55.872;37.462;2023-04-26T05:19:41;3.30;;;3.00;;
66384;SDS011;53426;55.872;37.462;2023-04-26T05:22:07;3.53;;;3.05;;
66384;SDS011;53426;55.872;37.462;2023-04-26T05:24:34;4.30;;;3.40;;
66384;SDS011;53426;55.872;37.462;2023-04-26T05:27:01;3.33;;;3.08;;
66384;SDS011;53426;55.872;37.462;2023-04-26T05:29:40;3.20;;;2.80;;
66384;SDS011;53426;55.872;37.462;2023-04-26T05:32:16;3.55;;;3.25;;
66384;SDS011;53426;55.872;37.462;2023-04-26T05:34:49;3.08;;;2.88;;
66384;SDS011;53426;55.872;37.462;2023-04-26T05:37:15;3.03;;;2.83;;
66384;SDS011;53426;55.872;37.462;2023-04-26T05:39:42;3.30;;;3.10;;
66384;SDS011;53426;55.872;37.462;2023-04-26T05:42:09;2.85;;;2.65;;
66384;SDS011;53426;55.872;37.462;2023-04-26T05:44:35;3.35;;;2.70;;
66384;SDS011;53426;55.872;37.462;2023-04-26T05:47:01;3.05;;;2.85;;
66384;SDS011;53426;55.872;37.462;2023-04-26T05:49:27;4.80;;;3.13;;
66384;SDS011;53426;55.872;37.462;2023-04-26T05:51:53;3.38;;;3.08;;
66384;SDS011;53426;55.872;37.462;2023-04-26T05:54:19;2.95;;;2.75;;
66384;SDS011;53426;55.872;37.462;2023-04-26T05:56:47;3.38;;;3.08;;
66384;SDS011;53426;55.872;37.462;2023-04-26T05:59:13;2.42;;;2.22;;
66384;SDS011;53426;55.872;37.462;2023-04-26T06:01:39;3.03;;;2.75;;
66384;SDS011;53426;55.872;37.462;2023-04-26T06:04:11;3.30;;;3.00;;
66384;SDS011;53426;55.872;37.462;2023-04-26T06:06:52;3.60;;;3.30;;
66384;SDS011;53426;55.872;37.462;2023-04-26T06:09:20;6.20;;;3.15;;
66384;SDS011;53426;55.872;37.462;2023-04-26T06:11:46;3.00;;;2.60;;
66384;SDS011;53426;55.872;37.462;2023-04-26T06:14:15;2.78;;;2.30;;
66384;SDS011;53426;55.872;37.462;2023-04-26T06:16:41;2.47;;;2.38;;
66384;SDS011;53426;55.872;37.462;2023-04-26T06:19:07;2.78;;;1.98;;
66384;SDS011;53426;55.872;37.462;2023-04-26T06:21:33;5.20;;;2.95;;
66384;SDS011;53426;55.872;37.462;2023-04-26T06:23:59;3.35;;;2.25;;
66384;SDS011;53426;55.872;37.462;2023-04-26T06:26:28;4.15;;;2.25;;
66384;SDS011;53426;55.872;37.462;2023-04-26T06:28:56;3.42;;;3.13;;
66384;SDS011;53426;55.872;37.462;2023-04-26T06:31:22;3.63;;;2.50;;
66384;SDS011;53426;55.872;37.462;2023-04-26T06:33:48;2.20;;;2.10;;
66384;SDS011;53426;55.872;37.462;2023-04-26T06:36:14;2.15;;;1.95;;
66384;SDS011;53426;55.872;37.462;2023-04-26T06:38:41;2.38;;;2.17;;
66384;SDS011;53426;55.872;37.462;2023-04-26T06:41:07;3.17;;;2.00;;
66384;SDS011;53426;55.872;37.462;2023-04-26T06:43:33;6.40;;;2.22;;
66384;SDS011;53426;55.872;37.462;2023-04-26T06:46:06;2.65;;;2.40;;
66384;SDS011;53426;55.872;37.462;2023-04-26T06:48:32;4.15;;;2.20;;
66384;SDS011;53426;55.872;37.462;2023-04-26T06:50:58;8.05;;;6.22;;
66384;SDS011;53426;55.872;37.462;2023-04-26T06:53:30;2.83;;;2.60;;
66384;SDS011;53426;55.872;37.462;2023-04-26T06:55:56;2.60;;;2.40;;
66384;SDS011;53426;55.872;37.462;2023-04-26T06:58:22;2.70;;;2.50;;
66384;SDS011;53426;55.872;37.462;2023-04-26T07:00:48;2.70;;;2.50;;
66384;SDS011;53426;55.872;37.462;2023-04-26T07:03:14;3.67;;;3.03;;
66384;SDS011;53426;55.872;37.462;2023-04-26T07:05:42;5.03;;;3.05;;
66384;SDS011;53426;55.872;37.462;2023-04-26T07:08:08;3.90;;;3.60;;
66384;SDS011;53426;55.872;37.462;2023-04-26T07:10:34;4.32;;;3.92;;
66384;SDS011;53426;55.872;37.462;2023-04-26T07:13:00;2.97;;;2.78;;
66384;SDS011;53426;55.872;37.462;2023-04-26T07:15:26;3.40;;;3.10;;
66384;SDS011;53426;55.872;37.462;2023-04-26T07:17:54;2.90;;;2.70;;
66384;SDS011;53426;55.872;37.462;2023-04-26T07:20:20;4.43;;;3.63;;
66384;SDS011;53426;55.872;37.462;2023-04-26T07:22:47;4.35;;;3.95;;
66384;SDS011;53426;55.872;37.462;2023-04-26T07:25:13;5.18;;;3.72;;
66384;SDS011;53426;55.872;37.462;2023-04-26T07:27:39;3.05;;;2.75;;
66384;SDS011;53426;55.872;37.462;2023-04-26T07:30:05;3.67;;;3.30;;
66384;SDS011;53426;55.872;37.462;2023-04-26T07:32:32;4.60;;;3.95;;
66384;SDS011;53426;55.872;37.462;2023-04-26T07:34:58;4.53;;;3.75;;
66384;SDS011;53426;55.872;37.462;2023-04-26T07:37:24;4.65;;;4.15;;
66384;SDS011;53426;55.872;37.462;2023-04-26T07:39:50;4.47;;;3.80;;
66384;SDS011;53426;55.872;37.462;2023-04-26T07:42:15;4.55;;;4.00;;
66384;SDS011;53426;55.872;37.462;2023-04-26T07:44:41;4.13;;;3.72;;
66384;SDS011;53426;55.872;37.462;2023-04-26T07:47:11;4.07;;;3.70;;
66384;SDS011;53426;55.872;37.462;2023-04-26T07:49:37;5.82;;;4.07;;
66384;SDS011;53426;55.872;37.462;2023-04-26T07:52:03;5.60;;;4.20;;
66384;SDS011;53426;55.872;37.462;2023-04-26T07:54:30;18.65;;;15.93;;
66384;SDS011;53426;55.872;37.462;2023-04-26T07:56:56;6.10;;;5.13;;
66384;SDS011;53426;55.872;37.462;2023-04-26T07:59:22;5.85;;;5.25;;
66384;SDS011;53426;55.872;37.462;2023-04-26T08:01:49;5.82;;;5.28;;
66384;SDS011;53426;55.872;37.462;2023-04-26T08:04:16;5.35;;;4.57;;
66384;SDS011;53426;55.872;37.462;2023-04-26T08:06:43;4.88;;;4.38;;
66384;SDS011;53426;55.872;37.462;2023-04-26T08:09:13;6.93;;;4.30;;
66384;SDS011;53426;55.872;37.462;2023-04-26T08:11:38;4.55;;;4.15;;
66384;SDS011;53426;55.872;37.462;2023-04-26T08:14:06;5.13;;;4.00;;
66384;SDS011;53426;55.872;37.462;2023-04-26T08:16:31;4.47;;;3.92;;
66384;SDS011;53426;55.872;37.462;2023-04-26T08:18:57;9.90;;;3.75;;
66384;SDS011;53426;55.872;37.462;2023-04-26T08:21:27;4.40;;;4.00;;
66384;SDS011;53426;55.872;37.462;2023-04-26T08:23:53;6.18;;;3.80;;
66384;SDS011;53426;55.872;37.462;2023-04-26T08:26:34;6.88;;;3.30;;
66384;SDS011;53426;55.872;37.462;2023-04-26T08:29:36;3.60;;;3.30;;
66384;SDS011;53426;55.872;37.462;2023-04-26T08:32:01;3.97;;;3.58;;
66384;SDS011;53426;55.872;37.462;2023-04-26T08:34:27;3.88;;;3.58;;
66384;SDS011;53426;55.872;37.462;2023-04-26T08:36:53;4.07;;;3.22;;
66384;SDS011;53426;55.872;37.462;2023-04-26T08:39:23;4.30;;;3.92;;
66384;SDS011;53426;55.872;37.462;2023-04-26T08:41:52;3.50;;;3.20;;
66384;SDS011;53426;55.872;37.462;2023-04-26T08:44:22;3.33;;;2.95;;
66384;SDS011;53426;55.872;37.462;2023-04-26T08:49:53;6.43;;;3.83;;
66384;SDS011;53426;55.872;37.462;2023-04-26T08:52:26;4.07;;;3.78;;
66384;SDS011;53426;55.872;37.462;2023-04-26T08:54:53;6.85;;;3.70;;
66384;SDS011;53426;55.872;37.462;2023-04-26T08:57:21;5.50;;;3.65;;
66384;SDS011;53426;55.872;37.462;2023-04-26T08:59:49;11.85;;;8.00;;
66384;SDS011;53426;55.872;37.462;2023-04-26T09:02:39;7.55;;;4.53;;
66384;SDS011;53426;55.872;37.462;2023-04-26T09:05:07;5.07;;;3.95;;
66384;SDS011;53426;55.872;37.462;2023-04-26T09:07:37;4.47;;;4.07;;
66384;SDS011;53426;55.872;37.462;2023-04-26T09:10:07;5.30;;;4.72;;
66384;SDS011;53426;55.872;37.462;2023-04-26T09:12:34;4.57;;;4.18;;
66384;SDS011;53426;55.872;37.462;2023-04-26T09:15:01;9.20;;;4.55;;
66384;SDS011;53426;55.872;37.462;2023-04-26T09:17:31;5.05;;;4.65;;
66384;SDS011;53426;55.872;37.462;2023-04-26T09:19:59;5.53;;;5.00;;
66384;SDS011;53426;55.872;37.462;2023-04-26T09:22:30;5.05;;;4.55;;
66384;SDS011;53426;55.872;37.462;2023-04-26T09:24:59;12.93;;;4.68;;
66384;SDS011;53426;55.872;37.462;2023-04-26T09:27:34;4.95;;;4.50;;
66384;SDS011;53426;55.872;37.462;2023-04-26T09:35:33;6.13;;;5.50;;
66384;SDS011;53426;55.872;37.462;2023-04-26T09:38:04;6.07;;;5.60;;
66384;SDS011;53426;55.872;37.462;2023-04-26T09:40:36;5.93;;;5.43;;
66384;SDS011;53426;55.872;37.462;2023-04-26T09:43:12;7.15;;;4.88;;
66384;SDS011;53426;55.872;37.462;2023-04-26T09:48:14;5.30;;;4.80;;
66384;SDS011;53426;55.872;37.462;2023-04-26T09:50:43;5.90;;;4.38;;
66384;SDS011;53426;55.872;37.462;2023-04-26T09:53:12;5.38;;;4.10;;
66384;SDS011;53426;55.872;37.462;2023-04-26T09:55:52;5.68;;;4.78;;
66384;SDS011;53426;55.872;37.462;2023-04-26T09:58:21;5.55;;;4.43;;
66384;SDS011;53426;55.872;37.462;2023-04-26T10:00:51;4.78;;;4.28;;
66384;SDS011;53426;55.872;37.462;2023-04-26T10:03:18;5.15;;;4.60;;
66384;SDS011;53426;55.872;37.462;2023-04-26T10:05:45;9.23;;;5.40;;
66384;SDS011;53426;55.872;37.462;2023-04-26T10:08:12;8.07;;;5.60;;
66384;SDS011;53426;55.872;37.462;2023-04-26T10:10:38;7.07;;;4.93;;
66384;SDS011;53426;55.872;37.462;2023-04-26T10:13:05;5.53;;;4.88;;
66384;SDS011;53426;55.872;37.462;2023-04-26T10:15:33;5.68;;;5.18;;
66384;SDS011;53426;55.872;37.462;2023-04-26T10:18:00;11.60;;;4.32;;
66384;SDS011;53426;55.872;37.462;2023-04-26T10:20:27;4.47;;;4.10;;
66384;SDS011;53426;55.872;37.462;2023-04-26T10:22:56;7.93;;;5.15;;
66384;SDS011;53426;55.872;37.462;2023-04-26T10:25:34;6.60;;;4.93;;
66384;SDS011;53426;55.872;37.462;2023-04-26T10:28:01;4.88;;;4.00;;
66384;SDS011;53426;55.872;37.462;2023-04-26T10:30:31;4.82;;;4.10;;
66384;SDS011;53426;55.872;37.462;2023-04-26T10:35:26;4.20;;;3.80;;
66384;SDS011;53426;55.872;37.462;2023-04-26T10:40:25;3.92;;;3.03;;
66384;SDS011;53426;55.872;37.462;2023-04-26T10:45:34;3.05;;;2.60;;
66384;SDS011;53426;55.872;37.462;2023-04-26T10:48:17;2.22;;;2.00;;
66384;SDS011;53426;55.872;37.462;2023-04-26T10:53:30;2.55;;;2.35;;
66384;SDS011;53426;55.872;37.462;2023-04-26T10:55:58;3.50;;;2.60;;
66384;SDS011;53426;55.872;37.462;2023-04-26T10:58:45;6.70;;;2.28;;
66384;SDS011;53426;55.872;37.462;2023-04-26T11:03:41;2.20;;;2.00;;
66384;SDS011;53426;55.872;37.462;2023-04-26T11:06:09;4.20;;;2.08;;
66384;SDS011;53426;55.872;37.462;2023-04-26T11:08:39;2.35;;;2.15;;
66384;SDS011;53426;55.872;37.462;2023-04-26T11:11:10;2.92;;;1.90;;
66384;SDS011;53426;55.872;37.462;2023-04-26T11:13:38;2.17;;;2.00;;
66384;SDS011;53426;55.872;37.462;2023-04-26T11:16:11;3.25;;;1.95;;
66384;SDS011;53426;55.872;37.462;2023-04-26T11:18:43;3.10;;;1.75;;
66384;SDS011;53426;55.872;37.462;2023-04-26T11:21:12;2.75;;;1.67;;
66384;SDS011;53426;55.872;37.462;2023-04-26T11:23:53;2.17;;;2.00;;
66384;SDS011;53426;55.872;37.462;2023-04-26T11:26:30;1.98;;;1.60;;
66384;SDS011;53426;55.872;37.462;2023-04-26T11:31:43;5.55;;;1.60;;
66384;SDS011;53426;55.872;37.462;2023-04-26T11:34:18;3.28;;;2.38;;
66384;SDS011;53426;55.872;37.462;2023-04-26T11:36:47;3.33;;;1.88;;
66384;SDS011;53426;55.872;37.462;2023-04-26T11:39:16;2.05;;;1.80;;
66384;SDS011;53426;55.872;37.462;2023-04-26T11:44:49;9.57;;;2.67;;
66384;SDS011;53426;55.872;37.462;2023-04-26T11:47:16;2.45;;;2.20;;
66384;SDS011;53426;55.872;37.462;2023-04-26T11:49:44;2.88;;;2.33;;
66384;SDS011;53426;55.872;37.462;2023-04-26T11:52:11;3.58;;;2.28;;
66384;SDS011;53426;55.872;37.462;2023-04-26T11:54:37;2.38;;;2.15;;
66384;SDS011;53426;55.872;37.462;2023-04-26T11:57:13;5.32;;;2.30;;
66384;SDS011;53426;55.872;37.462;2023-04-26T11:59:40;2.30;;;2.20;;
66384;SDS011;53426;55.872;37.462;2023-04-26T12:02:06;4.72;;;1.70;;
66384;SDS011;53426;55.872;37.462;2023-04-26T12:04:32;2.35;;;1.88;;
66384;SDS011;53426;55.872;37.462;2023-04-26T12:06:58;2.40;;;1.90;;
66384;SDS011;53426;55.872;37.462;2023-04-26T12:09:28;2.92;;;2.00;;
66384;SDS011;53426;55.872;37.462;2023-04-26T12:11:56;3.30;;;2.20;;
66384;SDS011;53426;55.872;37.462;2023-04-26T12:14:41;2.13;;;1.90;;
66384;SDS011;53426;55.872;37.462;2023-04-26T12:17:07;1.77;;;1.67;;
66384;SDS011;53426;55.872;37.462;2023-04-26T12:19:38;3.05;;;1.77;;
66384;SDS011;53426;55.872;37.462;2023-04-26T12:22:05;2.30;;;2.10;;
66384;SDS011;53426;55.872;37.462;2023-04-26T12:24:32;5.47;;;2.00;;
66384;SDS011;53426;55.872;37.462;2023-04-26T12:27:01;2.30;;;2.10;;
66384;SDS011;53426;55.872;37.462;2023-04-26T12:29:31;5.53;;;2.17;;
66384;SDS011;53426;55.872;37.462;2023-04-26T12:31:58;5.75;;;2.30;;
66384;SDS011;53426;55.872;37.462;2023-04-26T12:34:24;2.22;;;2.03;;
66384;SDS011;53426;55.872;37.462;2023-04-26T12:36:50;3.67;;;2.50;;
66384;SDS011;53426;55.872;37.462;2023-04-26T12:39:17;2.60;;;2.40;;
66384;SDS011;53426;55.872;37.462;2023-04-26T12:41:46;8.43;;;2.60;;
66384;SDS011;53426;55.872;37.462;2023-04-26T12:44:12;9.13;;;2.42;;
66384;SDS011;53426;55.872;37.462;2023-04-26T12:46:40;9.43;;;2.50;;
66384;SDS011;53426;55.872;37.462;2023-04-26T12:49:06;2.22;;;2.08;;
66384;SDS011;53426;55.872;37.462;2023-04-26T12:51:32;5.70;;;2.17;;
66384;SDS011;53426;55.872;37.462;2023-04-26T12:54:00;2.60;;;2.15;;
66384;SDS011;53426;55.872;37.462;2023-04-26T12:56:28;3.17;;;2.28;;
66384;SDS011;53426;55.872;37.462;2023-04-26T12:58:54;2.35;;;2.00;;
66384;SDS011;53426;55.872;37.462;2023-04-26T13:01:20;3.33;;;2.22;;
66384;SDS011;53426;55.872;37.462;2023-04-26T13:03:49;3.55;;;2.20;;
66384;SDS011;53426;55.872;37.462;2023-04-26T13:06:15;5.35;;;2.20;;
66384;SDS011;53426;55.872;37.462;2023-04-26T13:08:42;7.85;;;2.00;;
66384;SDS011;53426;55.872;37.462;2023-04-26T13:11:08;6.57;;;1.80;;
66384;SDS011;53426;55.872;37.462;2023-04-26T13:13:37;2.33;;;1.90;;
66384;SDS011;53426;55.872;37.462;2023-04-26T13:16:02;3.95;;;2.17;;
66384;SDS011;53426;55.872;37.462;2023-04-26T13:18:28;5.93;;;2.30;;
66384;SDS011;53426;55.872;37.462;2023-04-26T13:20:54;2.53;;;1.98;;
66384;SDS011;53426;55.872;37.462;2023-04-26T13:23:23;4.88;;;1.90;;
66384;SDS011;53426;55.872;37.462;2023-04-26T13:25:52;2.20;;;2.00;;
66384;SDS011;53426;55.872;37.462;2023-04-26T13:28:19;7.90;;;2.50;;
66384;SDS011;53426;55.872;37.462;2023-04-26T13:30:45;4.47;;;1.98;;
66384;SDS011;53426;55.872;37.462;2023-04-26T13:33:11;8.85;;;2.78;;
66384;SDS011;53426;55.872;37.462;2023-04-26T13:35:40;14.13;;;2.35;;
66384;SDS011;53426;55.872;37.462;2023-04-26T13:38:06;6.25;;;2.47;;
66384;SDS011;53426;55.872;37.462;2023-04-26T13:40:32;4.28;;;3.13;;
66384;SDS011;53426;55.872;37.462;2023-04-26T13:42:59;4.07;;;2.63;;
66384;SDS011;53426;55.872;37.462;2023-04-26T13:45:44;3.22;;;2.80;;
66384;SDS011;53426;55.872;37.462;2023-04-26T13:48:10;7.57;;;2.35;;
66384;SDS011;53426;55.872;37.462;2023-04-26T13:50:36;3.03;;;2.58;;
66384;SDS011;53426;55.872;37.462;2023-04-26T13:53:02;5.78;;;3.13;;
66384;SDS011;53426;55.872;37.462;2023-04-26T13:58:35;6.30;;;3.33;;
66384;SDS011;53426;55.872;37.462;2023-04-26T14:01:01;5.80;;;2.88;;
66384;SDS011;53426;55.872;37.462;2023-04-26T14:03:27;15.75;;;3.00;;
66384;SDS011;53426;55.872;37.462;2023-04-26T14:05:54;6.25;;;3.03;;
66384;SDS011;53426;55.872;37.462;2023-04-26T14:08:21;16.25;;;3.05;;
66384;SDS011;53426;55.872;37.462;2023-04-26T14:10:47;3.50;;;2.65;;
66384;SDS011;53426;55.872;37.462;2023-04-26T14:13:13;5.72;;;2.80;;
66384;SDS011;53426;55.872;37.462;2023-04-26T14:15:40;9.30;;;2.75;;
66384;SDS011;53426;55.872;37.462;2023-04-26T14:18:06;7.50;;;2.80;;
66384;SDS011;53426;55.872;37.462;2023-04-26T14:20:33;4.50;;;2.50;;
66384;SDS011;53426;55.872;37.462;2023-04-26T14:22:58;12.68;;;2.67;;
66384;SDS011;53426;55.872;37.462;2023-04-26T14:25:25;13.07;;;3.10;;
66384;SDS011;53426;55.872;37.462;2023-04-26T14:27:54;12.93;;;2.80;;
66384;SDS011;53426;55.872;37.462;2023-04-26T14:30:22;14.25;;;2.80;;
66384;SDS011;53426;55.872;37.462;2023-04-26T14:32:50;5.30;;;2.75;;
66384;SDS011;53426;55.872;37.462;2023-04-26T14:35:15;3.45;;;2.78;;
66384;SDS011;53426;55.872;37.462;2023-04-26T14:37:41;7.63;;;2.80;;
66384;SDS011;53426;55.872;37.462;2023-04-26T14:40:07;5.05;;;2.63;;
66384;SDS011;53426;55.872;37.462;2023-04-26T14:42:34;5.13;;;2.58;;
66384;SDS011;53426;55.872;37.462;2023-04-26T14:45:00;7.10;;;2.58;;
66384;SDS011;53426;55.872;37.462;2023-04-26T14:47:32;3.00;;;2.67;;
66384;SDS011;53426;55.872;37.462;2023-04-26T14:53:30;6.72;;;3.10;;
66384;SDS011;53426;55.872;37.462;2023-04-26T14:55:56;7.57;;;2.60;;
66384;SDS011;53426;55.872;37.462;2023-04-26T14:58:34;6.05;;;3.38;;
66384;SDS011;53426;55.872;37.462;2023-04-26T15:01:01;7.45;;;3.42;;
66384;SDS011;53426;55.872;37.462;2023-04-26T15:03:27;5.75;;;3.33;;
66384;SDS011;53426;55.872;37.462;2023-04-26T15:05:59;10.35;;;3.88;;
66384;SDS011;53426;55.872;37.462;2023-04-26T15:08:25;3.50;;;2.58;;
66384;SDS011;53426;55.872;37.462;2023-04-26T15:10:51;10.73;;;3.35;;
66384;SDS011;53426;55.872;37.462;2023-04-26T15:13:17;7.80;;;3.30;;
66384;SDS011;53426;55.872;37.462;2023-04-26T15:15:50;4.65;;;3.00;;
66384;SDS011;53426;55.872;37.462;2023-04-26T15:18:19;10.35;;;3.20;;
66384;SDS011;53426;55.872;37.462;2023-04-26T15:20:47;7.88;;;2.95;;
66384;SDS011;53426;55.872;37.462;2023-04-26T15:23:13;5.75;;;2.72;;
66384;SDS011;53426;55.872;37.462;2023-04-26T15:25:39;7.82;;;3.05;;
66384;SDS011;53426;55.872;37.462;2023-04-26T15:28:05;14.25;;;3.15;;
66384;SDS011;53426;55.872;37.462;2023-04-26T15:30:31;14.50;;;4.55;;
66384;SDS011;53426;55.872;37.462;2023-04-26T15:32:57;11.30;;;3.13;;
66384;SDS011;53426;55.872;37.462;2023-04-26T15:35:24;7.15;;;3.10;;
66384;SDS011;53426;55.872;37.462;2023-04-26T15:37:57;4.93;;;3.42;;
66384;SDS011;53426;55.872;37.462;2023-04-26T15:40:23;9.10;;;3.00;;
66384;SDS011;53426;55.872;37.462;2023-04-26T15:42:50;14.07;;;3.38;;
66384;SDS011;53426;55.872;37.462;2023-04-26T15:45:16;7.32;;;3.53;;
66384;SDS011;53426;55.872;37.462;2023-04-26T15:47:43;9.63;;;3.28;;
66384;SDS011;53426;55.872;37.462;2023-04-26T15:50:09;12.80;;;3.53;;
66384;SDS011;53426;55.872;37.462;2023-04-26T15:52:35;10.68;;;3.22;;
66384;SDS011;53426;55.872;37.462;2023-04-26T15:55:02;11.05;;;3.47;;
66384;SDS011;53426;55.872;37.462;2023-04-26T15:57:30;12.25;;;2.90;;
66384;SDS011;53426;55.872;37.462;2023-04-26T15:59:56;14.43;;;3.42;;
66384;SDS011;53426;55.872;37.462;2023-04-26T16:02:22;22.13;;;3.20;;
66384;SDS011;53426;55.872;37.462;2023-04-26T16:04:48;8.55;;;3.08;;
66384;SDS011;53426;55.872;37.462;2023-04-26T16:07:13;6.00;;;3.00;;
66384;SDS011;53426;55.872;37.462;2023-04-26T16:09:39;8.68;;;3.03;;
66384;SDS011;53426;55.872;37.462;2023-04-26T16:12:05;2.88;;;2.65;;
66384;SDS011;53426;55.872;37.462;2023-04-26T16:14:31;6.25;;;3.30;;
66384;SDS011;53426;55.872;37.462;2023-04-26T16:16:57;9.05;;;4.10;;
66384;SDS011;53426;55.872;37.462;2023-04-26T16:19:24;6.97;;;3.35;;
66384;SDS011;53426;55.872;37.462;2023-04-26T16:21:51;14.60;;;3.50;;
66384;SDS011;53426;55.872;37.462;2023-04-26T16:24:38;4.97;;;3.00;;
66384;SDS011;53426;55.872;37.462;2023-04-26T16:27:16;8.38;;;3.45;;
66384;SDS011;53426;55.872;37.462;2023-04-26T16:29:52;7.70;;;3.65;;
66384;SDS011;53426;55.872;37.462;2023-04-26T16:32:19;11.55;;;3.10;;
66384;SDS011;53426;55.872;37.462;2023-04-26T16:34:45;4.10;;;3.03;;